Map

Track Data

SID SEASON NUMBER BASIN SUBBASIN NAME ISO_TIME NATURE LAT LON WMO_WIND WMO_PRES WMO_AGENCY TRACK_TYPE DIST2LAND LANDFALL IFLAG USA_AGENCY USA_ATCF_ID USA_LAT USA_LON USA_RECORD USA_STATUS USA_WIND USA_PRES USA_SSHS USA_R34_NE USA_R34_SE USA_R34_SW USA_R34_NW USA_R50_NE USA_R50_SE USA_R50_SW USA_R50_NW USA_R64_NE USA_R64_SE USA_R64_SW USA_R64_NW USA_POCI USA_ROCI USA_RMW USA_EYE TOKYO_LAT TOKYO_LON TOKYO_GRADE TOKYO_WIND TOKYO_PRES TOKYO_R50_DIR TOKYO_R50_LONG TOKYO_R50_SHORT TOKYO_R30_DIR TOKYO_R30_LONG TOKYO_R30_SHORT TOKYO_LAND CMA_LAT CMA_LON CMA_CAT CMA_WIND CMA_PRES HKO_LAT HKO_LON HKO_CAT HKO_WIND HKO_PRES NEWDELHI_LAT NEWDELHI_LON NEWDELHI_GRADE NEWDELHI_WIND NEWDELHI_PRES NEWDELHI_CI NEWDELHI_DP NEWDELHI_POCI REUNION_LAT REUNION_LON REUNION_TYPE REUNION_WIND REUNION_PRES REUNION_TNUM REUNION_CI REUNION_RMW REUNION_R34_NE REUNION_R34_SE REUNION_R34_SW REUNION_R34_NW REUNION_R50_NE REUNION_R50_SE REUNION_R50_SW REUNION_R50_NW REUNION_R64_NE REUNION_R64_SE REUNION_R64_SW REUNION_R64_NW BOM_LAT BOM_LON BOM_TYPE BOM_WIND BOM_PRES BOM_TNUM BOM_CI BOM_RMW BOM_R34_NE BOM_R34_SE BOM_R34_SW BOM_R34_NW BOM_R50_NE BOM_R50_SE BOM_R50_SW BOM_R50_NW BOM_R64_NE BOM_R64_SE BOM_R64_SW BOM_R64_NW BOM_ROCI BOM_POCI BOM_EYE BOM_POS_METHOD BOM_PRES_METHOD NADI_LAT NADI_LON NADI_CAT NADI_WIND NADI_PRES WELLINGTON_LAT WELLINGTON_LON WELLINGTON_WIND WELLINGTON_PRES DS824_LAT DS824_LON DS824_STAGE DS824_WIND DS824_PRES TD9636_LAT TD9636_LON TD9636_STAGE TD9636_WIND TD9636_PRES TD9635_LAT TD9635_LON TD9635_WIND TD9635_PRES TD9635_ROCI NEUMANN_LAT NEUMANN_LON NEUMANN_CLASS NEUMANN_WIND NEUMANN_PRES MLC_LAT MLC_LON MLC_CLASS MLC_WIND MLC_PRES USA_GUST BOM_GUST BOM_GUST_PER REUNION_GUST REUNION_GUST_PER USA_SEAHGT USA_SEARAD_NE USA_SEARAD_SE USA_SEARAD_SW USA_SEARAD_NW STORM_SPEED STORM_DIR
1943131N10134 1943 30 WP MM NOT_NAMED 1943-05-10 21:00:00 NR 10.0000 134.000 main 853 811 __________O___ -1 10.0000 134.000 4 8 277
1943131N10134 1943 30 WP MM NOT_NAMED 1943-05-11 00:00:00 NR 10.0472 133.594 main 811 771 __________P___ -1 10.0472 133.594 4 8 278
1943131N10134 1943 30 WP MM NOT_NAMED 1943-05-11 03:00:00 NR 10.1054 133.190 main 771 730 __________P___ -1 10.1054 133.190 4 8 280
1943131N10134 1943 30 WP MM NOT_NAMED 1943-05-11 06:00:00 NR 10.1858 132.791 main 730 690 __________P___ -1 10.1858 132.791 4 8 284
1943131N10134 1943 30 WP MM NOT_NAMED 1943-05-11 09:00:00 NR 10.3000 132.400 main 690 650 __________O___ -1 10.3000 132.400 4 8 289
1943131N10134 1943 30 WP MM NOT_NAMED 1943-05-11 12:00:00 NR 10.4543 132.020 main 652 622 __________P___ -1 10.4543 132.020 4 8 295
1943131N10134 1943 30 WP MM NOT_NAMED 1943-05-11 15:00:00 NR 10.6349 131.655 main 622 586 __________P___ -1 10.6349 131.655 4 8 298
1943131N10134 1943 30 WP MM NOT_NAMED 1943-05-11 18:00:00 NR 10.8231 131.313 main 586 563 __________P___ -1 10.8231 131.313 4 7 300
1943131N10134 1943 30 WP MM NOT_NAMED 1943-05-11 21:00:00 NR 11.0000 131.000 main 563 535 __________O___ -1 11.0000 131.000 4 7 299
1943131N10134 1943 30 WP MM NOT_NAMED 1943-05-12 00:00:00 NR 11.1432 130.725 main 535 513 __________P___ -1 11.1432 130.725 4 6 298
1943131N10134 1943 30 WP MM NOT_NAMED 1943-05-12 03:00:00 NR 11.2722 130.477 main 514 492 __________P___ -1 11.2722 130.477 4 5 297
1943131N10134 1943 30 WP MM NOT_NAMED 1943-05-12 06:00:00 NR 11.3901 130.241 main 482 461 __________P___ -1 11.3901 130.241 4 5 296
1943131N10134 1943 30 WP MM NOT_NAMED 1943-05-12 09:00:00 NR 11.5000 130.000 main 461 430 __________O___ -1 11.5000 130.000 4 6 293
1943131N10134 1943 30 WP MM NOT_NAMED 1943-05-12 12:00:00 NR 11.6113 129.720 main 430 411 __________P___ -1 11.6113 129.720 4 6 291
1943131N10134 1943 30 WP MM NOT_NAMED 1943-05-12 15:00:00 NR 11.7151 129.435 main 400 381 __________P___ -1 11.7151 129.435 4 6 290
1943131N10134 1943 30 WP MM NOT_NAMED 1943-05-12 18:00:00 NR 11.8113 129.158 main 381 352 __________P___ -1 11.8113 129.158 4 6 289
1943131N10134 1943 30 WP MM NOT_NAMED 1943-05-12 21:00:00 NR 11.9000 128.900 main 352 335 __________O___ -1 11.9000 128.900 4 5 291
1943131N10134 1943 30 WP MM NOT_NAMED 1943-05-13 00:00:00 NR 11.9902 128.682 main 335 314 __________P___ -1 11.9902 128.682 4 4 293
1943131N10134 1943 30 WP MM NOT_NAMED 1943-05-13 03:00:00 NR 12.0723 128.485 main 319 299 __________P___ -1 12.0723 128.485 4 4 292
1943131N10134 1943 30 WP MM NOT_NAMED 1943-05-13 06:00:00 NR 12.1433 128.295 main 299 282 __________P___ -1 12.1433 128.295 4 4 289
1943131N10134 1943 30 WP MM NOT_NAMED 1943-05-13 09:00:00 NR 12.2000 128.100 main 282 261 __________O___ -1 12.2000 128.100 4 4 283
1943131N10134 1943 30 WP MM NOT_NAMED 1943-05-13 12:00:00 NR 12.2353 127.874 main 261 239 __________P___ -1 12.2353 127.874 4 5 277
1943131N10134 1943 30 WP MM NOT_NAMED 1943-05-13 15:00:00 NR 12.2575 127.642 main 228 206 __________P___ -1 12.2575 127.642 4 5 275
1943131N10134 1943 30 WP MM NOT_NAMED 1943-05-13 18:00:00 NR 12.2760 127.415 main 206 185 __________P___ -1 12.2760 127.415 4 4 276
1943131N10134 1943 30 WP MM NOT_NAMED 1943-05-13 21:00:00 NR 12.3000 127.200 main 185 163 __________O___ -1 12.3000 127.200 4 4 280
1943131N10134 1943 30 WP MM NOT_NAMED 1943-05-14 00:00:00 NR 12.3427 127.019 main 163 153 __________P___ -1 12.3427 127.019 4 4 285
1943131N10134 1943 30 WP MM NOT_NAMED 1943-05-14 03:00:00 NR 12.3923 126.850 main 143 132 __________P___ -1 12.3923 126.850 4 3 287
1943131N10134 1943 30 WP MM NOT_NAMED 1943-05-14 06:00:00 NR 12.4458 126.681 main 132 113 __________P___ -1 12.4458 126.681 4 4 287
1943131N10134 1943 30 WP MM NOT_NAMED 1943-05-14 09:00:00 NR 12.5000 126.500 main 113 93 __________O___ -1 12.5000 126.500 4 4 280
1943131N10134 1943 30 WP MM NOT_NAMED 1943-05-14 12:00:00 NR 12.5134 126.301 main 93 73 __________P___ -1 12.5134 126.301 4 4 275
1943131N10134 1943 30 WP MM NOT_NAMED 1943-05-14 15:00:00 NR 12.5324 126.087 main 73 62 __________P___ -1 12.5324 126.087 4 4 279
1943131N10134 1943 30 WP MM NOT_NAMED 1943-05-14 18:00:00 NR 12.5852 125.854 main 62 46 __________P___ -1 12.5852 125.854 4 5 289
1943131N10134 1943 30 WP MM NOT_NAMED 1943-05-14 21:00:00 NR 12.7000 125.600 main 46 39 __________O___ -1 12.7000 125.600 4 6 301
1943131N10134 1943 30 WP MM NOT_NAMED 1943-05-15 00:00:00 NR 12.8940 125.334 main 46 46 __________P___ -1 12.8940 125.334 4 7 310
1943131N10134 1943 30 WP MM NOT_NAMED 1943-05-15 03:00:00 NR 13.1524 125.045 main 78 54 __________P___ -1 13.1524 125.045 4 8 314
1943131N10134 1943 30 WP MM NOT_NAMED 1943-05-15 06:00:00 NR 13.4596 124.733 main 39 0 __________P___ -1 13.4596 124.733 4 9 316
1943131N10134 1943 30 WP MM NOT_NAMED 1943-05-15 09:00:00 NR 13.8000 124.400 main 0 0 __________O___ -1 13.8000 124.400 4 10 313
1943131N10134 1943 30 WP MM NOT_NAMED 1943-05-15 12:00:00 NR 14.1671 123.946 main 31 31 __________P___ -1 14.1671 123.946 4 12 311
1943131N10134 1943 30 WP MM NOT_NAMED 1943-05-15 15:00:00 NR 14.5582 123.487 main 70 68 __________P___ -1 14.5582 123.487 4 11 314
1943131N10134 1943 30 WP MM NOT_NAMED 1943-05-15 18:00:00 NR 14.9451 123.109 main 81 81 __________P___ -1 14.9451 123.109 4 9 323
1943131N10134 1943 30 WP MM NOT_NAMED 1943-05-15 21:00:00 NR 15.3000 122.900 main 123 108 __________O___ -1 15.3000 122.900 4 7 352
1943131N10134 1943 30 WP MM NOT_NAMED 1943-05-16 00:00:00 NR 15.5941 123.005 main 108 108 __________P___ -1 15.5941 123.005 4 7 33
1943131N10134 1943 30 WP MM NOT_NAMED 1943-05-16 03:00:00 NR 15.8529 123.278 main 122 122 __________P___ -1 15.8529 123.278 4 8 50
1943131N10134 1943 30 WP MM NOT_NAMED 1943-05-16 06:00:00 NR 16.0851 123.612 main 147 147 __________P___ -1 16.0851 123.612 4 7 53
1943131N10134 1943 30 WP MM NOT_NAMED 1943-05-16 09:00:00 NR 16.3000 123.900 main 163 159 __________O___ -1 16.3000 123.900 4 5 42
1943131N10134 1943 30 WP MM NOT_NAMED 1943-05-16 12:00:00 NR 16.4858 123.990 main 165 161 __________P___ -1 16.4858 123.990 4 4 17
1943131N10134 1943 30 WP MM NOT_NAMED 1943-05-16 15:00:00 NR 16.6623 124.018 main 161 160 __________P___ -1 16.6623 124.018 4 4 0
1943131N10134 1943 30 WP MM NOT_NAMED 1943-05-16 18:00:00 NR 16.8577 124.012 main 159 159 __________P___ -1 16.8577 124.012 4 4 0
1943131N10134 1943 30 WP MM NOT_NAMED 1943-05-16 21:00:00 NR 17.1000 124.000 main 159 159 __________O___ -1 17.1000 124.000 4 6 0
1943131N10134 1943 30 WP MM NOT_NAMED 1943-05-17 00:00:00 NR 17.4288 124.021 main 165 165 __________P___ -1 17.4288 124.021 4 7 4
1943131N10134 1943 30 WP MM NOT_NAMED 1943-05-17 03:00:00 NR 17.8050 124.043 main 178 178 __________P___ -1 17.8050 124.043 4 8 3
1943131N10134 1943 30 WP MM NOT_NAMED 1943-05-17 06:00:00 NR 18.2038 124.068 main 190 189 __________P___ -1 18.2038 124.068 4 8 4
1943131N10134 1943 30 WP MM NOT_NAMED 1943-05-17 09:00:00 NR 18.6000 124.100 main 191 191 __________O___ -1 18.6000 124.100 4 7 2
1943131N10134 1943 30 WP MM NOT_NAMED 1943-05-17 12:00:00 NR 18.9122 124.083 main 197 197 __________P___ -1 18.9122 124.083 4 6 0
1943131N10134 1943 30 WP MM NOT_NAMED 1943-05-17 15:00:00 NR 19.2244 124.083 main 209 209 __________P___ -1 19.2244 124.083 4 7 5
1943131N10134 1943 30 WP MM NOT_NAMED 1943-05-17 18:00:00 NR 19.5744 124.140 main 232 232 __________P___ -1 19.5744 124.140 4 8 15
1943131N10134 1943 30 WP MM NOT_NAMED 1943-05-17 21:00:00 NR 20.0000 124.300 main 275 275 __________O___ -1 20.0000 124.300 4 11 23
1943131N10134 1943 30 WP MM NOT_NAMED 1943-05-18 00:00:00 NR 20.5786 124.595 main 344 344 __________P___ -1 20.5786 124.595 4 14 28
1943131N10134 1943 30 WP MM NOT_NAMED 1943-05-18 03:00:00 NR 21.2277 124.998 main 421 421 __________P___ -1 21.2277 124.998 4 16 32
1943131N10134 1943 30 WP MM NOT_NAMED 1943-05-18 06:00:00 NR 21.8879 125.477 main 441 438 __________P___ -1 21.8879 125.477 4 16 36
1943131N10134 1943 30 WP MM NOT_NAMED 1943-05-18 09:00:00 NR 22.5000 126.000 main 473 468 __________O___ -1 22.5000 126.000 4 13 41
1943131N10134 1943 30 WP MM NOT_NAMED 1943-05-18 12:00:00 NR 22.8898 126.414 main 491 491 __________P___ -1 22.8898 126.414 4 11 47
1943131N10134 1943 30 WP MM NOT_NAMED 1943-05-18 15:00:00 NR 23.2394 126.875 main 528 525 __________P___ -1 23.2394 126.875 4 12 52
1943131N10134 1943 30 WP MM NOT_NAMED 1943-05-18 18:00:00 NR 23.6444 127.449 main 567 567 __________P___ -1 23.6444 127.449 4 16 52
1943131N10134 1943 30 WP MM NOT_NAMED 1943-05-18 21:00:00 NR 24.2000 128.200 main 632 632 __________O___ -1 24.2000 128.200 4 21 48
1943131N10134 1943 30 WP MM NOT_NAMED 1943-05-19 00:00:00 NR 25.0675 129.199 main 674 559 __________P___ -1 25.0675 129.199 4 27 47
1943131N10134 1943 30 WP MM NOT_NAMED 1943-05-19 03:00:00 NR 26.0774 130.393 main 547 444 __________P___ -1 26.0774 130.393 4 31 48
1943131N10134 1943 30 WP MM NOT_NAMED 1943-05-19 06:00:00 NR 27.1231 131.716 main 446 401 __________P___ -1 27.1231 131.716 4 32 50
1943131N10134 1943 30 WP MM NOT_NAMED 1943-05-19 09:00:00 NR 28.1000 133.100 main 398 385 __________O___ -1 28.1000 133.100 4 29 52
1943131N10134 1943 30 WP MM NOT_NAMED 1943-05-19 12:00:00 NR 28.9324 134.343 main 394 393 __________P___ -1 28.9324 134.343 4 27 55
1943131N10134 1943 30 WP MM NOT_NAMED 1943-05-19 15:00:00 NR 29.6741 135.636 main 412 363 __________P___ -1 29.6741 135.636 4 27 60
1943131N10134 1943 30 WP MM NOT_NAMED 1943-05-19 18:00:00 NR 30.3043 137.037 main 363 356 __________P___ -1 30.3043 137.037 4 28 66
1943131N10134 1943 30 WP MM NOT_NAMED 1943-05-19 21:00:00 NR 30.8000 138.600 main 391 391 __________O___ -1 30.8000 138.600 4 30 76
1943131N10134 1943 30 WP MM NOT_NAMED 1943-05-20 00:00:00 NR 31.0444 140.451 main 431 424 __________P___ -1 31.0444 140.451 4 33 84
1943131N10134 1943 30 WP MM NOT_NAMED 1943-05-20 03:00:00 NR 31.1598 142.443 main 473 473 __________P___ -1 31.1598 142.443 4 34 86
1943131N10134 1943 30 WP MM NOT_NAMED 1943-05-20 06:00:00 NR 31.2686 144.460 main 577 577 __________P___ -1 31.2686 144.460 4 34 84
1943131N10134 1943 30 WP MM NOT_NAMED 1943-05-20 09:00:00 NR 31.5000 146.400 main 690 690 __________O___ -1 31.5000 146.400 4 33 78
1943131N10134 1943 30 WP MM NOT_NAMED 1943-05-20 12:00:00 NR 31.9556 148.193 main 788 788 __________P___ -1 31.9556 148.193 4 31 69
1943131N10134 1943 30 WP MM NOT_NAMED 1943-05-20 15:00:00 NR 32.6036 149.873 main 895 895 __________P___ -1 32.6036 149.873 4 31 63
1943131N10134 1943 30 WP MM NOT_NAMED 1943-05-20 18:00:00 NR 33.3757 151.493 main 1001 1001 __________P___ -1 33.3757 151.493 4 31 59
1943131N10134 1943 30 WP MM NOT_NAMED 1943-05-20 21:00:00 NR 34.2000 153.100 main 1121 __________O___ -1 34.2000 153.100 4 31 58

Digital Typhoon Data and Search

About IBTrACS Database

This database is a web-friendly format of International Best Track Archive for Climate Stewardship (IBTrACS), a global best track data archive curated by NOAA dating back to 1842.

Updated: 2021-10-19